Mangalore Airport
VOML : now visible

Airfield :











YOU CAN JOIN US ON...

 
LOGIN :

Register | Disclaimer

   EN    FR    IT 

 









Legend :    VFR   Marginal VFR   IFR   Intensive IFR   Very Intensive IFR
Visi :
Ceiling :
>= 8 km
>= 3000ft
5 to 8 km
1000 to 3000 ft
1500m to 5 km
500 to 1000 ft
800 to 1500m
200 to 500 ft
< 800m
< 200 ft
Symbols :   Thunderstorms  Fog  Heavy snow  Heavy precipitations  Wind > 20 kt






- Airport Elevation : 337 ft
- IATA code : IXE


VOML - Mangalore

CURRENT METAR :
  • 292130Z 02005KT 6000 FEW020 24/21 Q1012 NOSIG

EXPIRED METARs :
  • 292100Z 36006KT 6000 FEW020 24/21 Q1013 NOSIG
  • 292030Z 35005KT 6000 NSC 24/21 Q1013 NOSIG
  • 292000Z 36005KT 6000 NSC 25/20 Q1013 NOSIG
  • 291930Z 01005KT 6000 NSC 25/20 Q1013 NOSIG
  • 291900Z 02005KT 6000 NSC 25/19 Q1013 NOSIG

TAF TAF VOML
Valid from the 29 at 21:00 until the 30 at 06:00 UTC


292000Z 2921/3006 VRB02KT 6000 FEW015
TEMPO 3000/3003 3000 BR SCT010
BECMG 3003/3004 09010KT



MET'MAP, your aeronautical weather chart ! - Copyright ORBIFLY December 2007 - Disclaimer

ORBIFLY MET'MAP TEAM :

Programming & Development : Alexandra Zaïnal
Concept & original design : Baudouin d'Aumeries
Assistance for programming : Marc-Olivier Méhu
Technical & hardware support : Manuel Goepfert

Contact : metmap@orbifly.com




SOURCES & CREDITS :

   NOAA       Earth
Advisory